Time;durP1;ratioP1;P1;durP2;ratioP2;P2;SDS_P1;SDS_P2;PMS_P1;PMS_P2;Temp;Humidity;BMP_temperature;BMP_pressure;BME280_temperature;BME280_humidity;BME280_pressure;Samples;Min_cycle;Max_cycle;Signal;HPM_P1;HPM_P2
2021/12/28 00:01:10;;;;;;;;;;;10.30;99.90;;;;;;4980294;28;20440;-80
2021/12/28 00:03:43;;;;;;;;;;;10.30;99.90;;;;;;4963407;29;19937;-79
2021/12/28 00:06:12;;;;;;;;;;;10.40;99.90;;;;;;4976852;28;19931;-79
2021/12/28 00:08:41;;;;;;;;;;;10.30;99.90;;;;;;4949816;29;19939;-81
2021/12/28 00:11:12;;;;;;;;;;;10.40;99.90;;;;;;4966350;29;19932;-81
2021/12/28 00:13:40;;;;;;;;;;;10.40;99.90;;;;;;4963192;28;19930;-79
2021/12/28 00:18:45;;;;;;;;;;;8.80;99.90;;;;;;4983392;28;19926;-82
2021/12/28 00:21:13;;;;;;;;;;;10.40;99.90;;;;;;4966916;29;19927;-82
2021/12/28 00:23:42;;;;;;;;;;;10.50;99.90;;;;;;4972027;28;19941;-79
2021/12/28 00:26:14;;;;;;;;;;;10.30;99.90;;;;;;4954641;28;19926;-80
2021/12/28 00:28:42;;;;;;;;;;;10.40;99.90;;;;;;4970033;28;20090;-79
2021/12/28 00:31:11;;;;;;;;;;;10.40;99.90;;;;;;4963399;28;19934;-79
2021/12/28 00:33:40;;;;;;;;;;;10.30;99.90;;;;;;4992837;28;19930;-79
2021/12/28 00:36:09;;;;;;;;;;;9.90;99.90;;;;;;4959239;28;20459;-80
2021/12/28 00:38:37;;;;;;;;;;;10.40;99.90;;;;;;4996565;28;19930;-79
2021/12/28 00:41:06;;;;;;;;;;;10.40;99.90;;;;;;4995548;28;19937;-79
2021/12/28 00:43:36;;;;;;;;;;;10.50;99.90;;;;;;4982438;28;19930;-80
2021/12/28 00:46:04;;;;;;;;;;;10.60;99.90;;;;;;4983426;28;19927;-80
2021/12/28 00:48:33;;;;;;;;;;;10.50;99.90;;;;;;5000484;28;19937;-79
2021/12/28 00:51:03;;;;;;;;;;;10.40;99.90;;;;;;4982211;28;19931;-80
2021/12/28 00:53:31;;;;;;;;;;;10.10;99.90;;;;;;4985381;28;19931;-79
2021/12/28 00:55:59;;;;;;;;;;;10.40;99.90;;;;;;4971689;28;19926;-81
2021/12/28 00:58:28;;;;;;;;;;;10.40;99.90;;;;;;4986040;28;19936;-83
2021/12/28 01:00:56;;;;;;;;;;;10.50;99.90;;;;;;4986671;28;19926;-82
2021/12/28 01:03:24;;;;;;;;;;;10.50;99.90;;;;;;5000213;28;19926;-81
2021/12/28 01:05:52;;;;;;;;;;;10.50;99.90;;;;;;4986056;28;19926;-81
2021/12/28 01:08:25;;;;;;;;;;;10.60;99.90;;;;;;4985042;28;19932;-81
2021/12/28 01:10:54;;;;;;;;;;;10.50;99.90;;;;;;4968326;28;19926;-82
2021/12/28 01:13:22;;;;;;;;;;;8.90;99.90;;;;;;4986184;28;19936;-81
2021/12/28 01:15:50;;;;;;;;;;;10.40;99.90;;;;;;4985397;28;20488;-81
2021/12/28 01:18:19;;;;;;;;;;;10.40;99.90;;;;;;4985138;28;19930;-84
2021/12/28 01:20:47;;;;;;;;;;;10.40;99.90;;;;;;4983426;28;19926;-83
2021/12/28 01:23:15;;;;;;;;;;;10.40;99.90;;;;;;4986273;28;19930;-80
2021/12/28 01:25:43;;;;;;;;;;;10.30;99.90;;;;;;4985549;28;19930;-81
2021/12/28 01:28:11;;;;;;;;;;;10.10;99.90;;;;;;5001094;28;19930;-81
2021/12/28 01:30:40;;;;;;;;;;;11.80;99.90;;;;;;5000085;28;19926;-80
2021/12/28 01:33:09;;;;;;;;;;;10.30;99.90;;;;;;4985929;28;19926;-80
2021/12/28 01:35:37;;;;;;;;;;;10.40;99.90;;;;;;5000127;28;19941;-81
2021/12/28 01:38:05;;;;;;;;;;;10.30;99.90;;;;;;5000047;28;19953;-80
2021/12/28 01:40:36;;;;;;;;;;;10.40;99.90;;;;;;4976353;28;19933;-83
2021/12/28 01:43:15;;;;;;;;;;;10.40;99.90;;;;;;4982808;28;19933;-80
2021/12/28 01:45:46;;;;;;;;;;;10.40;99.90;;;;;;4982284;28;19936;-79
2021/12/28 01:48:17;;;;;;;;;;;10.50;99.90;;;;;;4981524;28;19937;-80
2021/12/28 01:50:45;;;;;;;;;;;10.50;99.90;;;;;;4981584;28;19926;-80
2021/12/28 01:53:13;;;;;;;;;;;10.60;99.90;;;;;;4981395;28;19926;-82
2021/12/28 01:55:41;;;;;;;;;;;10.60;99.90;;;;;;4997070;28;19941;-82
2021/12/28 01:58:09;;;;;;;;;;;10.60;99.90;;;;;;4981226;28;20041;-80
2021/12/28 02:00:38;;;;;;;;;;;10.70;99.90;;;;;;4997797;28;19927;-81
2021/12/28 02:03:07;;;;;;;;;;;10.70;99.90;;;;;;4981139;28;20926;-81
2021/12/28 02:05:35;;;;;;;;;;;9.10;99.90;;;;;;4982836;28;19934;-80
2021/12/28 02:08:03;;;;;;;;;;;10.90;99.90;;;;;;4961256;28;20424;-82
2021/12/28 02:10:31;;;;;;;;;;;10.80;99.90;;;;;;4972358;28;19930;-80
2021/12/28 02:12:59;;;;;;;;;;;10.90;99.90;;;;;;4981321;28;19934;-81
2021/12/28 02:15:26;;;;;;;;;;;10.90;99.90;;;;;;4979830;28;19927;-80
2021/12/28 02:17:54;;;;;;;;;;;10.90;99.90;;;;;;4965022;28;19926;-80
2021/12/28 02:20:22;;;;;;;;;;;10.90;99.90;;;;;;4994871;28;19926;-80
2021/12/28 02:22:52;;;;;;;;;;;10.90;99.90;;;;;;4985227;28;19933;-80
2021/12/28 02:25:20;;;;;;;;;;;10.90;99.90;;;;;;5001384;28;19929;-80
2021/12/28 02:27:48;;;;;;;;;;;10.90;99.90;;;;;;4981743;28;19926;-81
2021/12/28 02:30:18;;;;;;;;;;;10.90;99.90;;;;;;4982442;28;19937;-79
2021/12/28 02:32:47;;;;;;;;;;;10.60;99.90;;;;;;4981527;28;20383;-82
2021/12/28 02:35:17;;;;;;;;;;;10.90;99.90;;;;;;4982580;28;19930;-81
2021/12/28 02:37:45;;;;;;;;;;;10.90;99.90;;;;;;4965904;28;19945;-81
2021/12/28 02:40:14;;;;;;;;;;;11.00;99.90;;;;;;4989129;28;20378;-80
2021/12/28 02:42:45;;;;;;;;;;;11.00;99.90;;;;;;5005710;28;19926;-82
2021/12/28 02:45:15;;;;;;;;;;;11.00;99.90;;;;;;4987771;28;19925;-80
2021/12/28 02:47:44;;;;;;;;;;;11.00;99.90;;;;;;4990792;28;19932;-80
2021/12/28 02:50:14;;;;;;;;;;;11.10;99.90;;;;;;4989415;28;19926;-80
2021/12/28 02:52:42;;;;;;;;;;;11.20;99.90;;;;;;5006491;28;19929;-82
2021/12/28 02:55:12;;;;;;;;;;;11.10;99.90;;;;;;5006915;28;19926;-81
2021/12/28 02:57:46;;;;;;;;;;;11.10;99.90;;;;;;4970215;28;19933;-80
2021/12/28 03:00:28;;;;;;;;;;;11.10;99.90;;;;;;4998247;28;19926;-81
2021/12/28 03:02:57;;;;;;;;;;;11.20;99.90;;;;;;4974098;28;19929;-82
2021/12/28 03:05:34;;;;;;;;;;;11.20;99.90;;;;;;4991150;28;19926;-80
2021/12/28 03:08:02;;;;;;;;;;;11.20;99.90;;;;;;4989244;28;20434;-83
2021/12/28 03:10:31;;;;;;;;;;;11.20;99.90;;;;;;4990415;28;19936;-83
2021/12/28 03:13:02;;;;;;;;;;;11.20;99.90;;;;;;5011606;28;19936;-80
2021/12/28 03:15:30;;;;;;;;;;;11.20;99.90;;;;;;5006817;28;19932;-81
2021/12/28 03:17:58;;;;;;;;;;;11.20;99.90;;;;;;5007576;28;19937;-81
2021/12/28 03:20:26;;;;;;;;;;;11.10;99.90;;;;;;5006428;28;19941;-80
2021/12/28 03:22:55;;;;;;;;;;;11.10;99.90;;;;;;4973644;28;20346;-80
2021/12/28 03:25:24;;;;;;;;;;;11.00;99.90;;;;;;4989779;28;19933;-80
2021/12/28 03:27:52;;;;;;;;;;;11.00;99.90;;;;;;4972748;28;19942;-79
2021/12/28 03:30:19;;;;;;;;;;;10.90;99.90;;;;;;5006778;28;19930;-80
2021/12/28 03:32:47;;;;;;;;;;;10.90;99.90;;;;;;4988950;28;19929;-80
2021/12/28 03:35:15;;;;;;;;;;;10.90;99.90;;;;;;5007308;28;19925;-79
2021/12/28 03:37:43;;;;;;;;;;;10.80;99.90;;;;;;4988965;28;20441;-80
2021/12/28 03:40:12;;;;;;;;;;;10.80;99.90;;;;;;5006285;28;19926;-82
2021/12/28 03:42:40;;;;;;;;;;;10.70;99.90;;;;;;4988461;28;19944;-82
2021/12/28 03:45:09;;;;;;;;;;;10.70;99.90;;;;;;5006341;28;19929;-82
2021/12/28 03:47:37;;;;;;;;;;;10.60;99.90;;;;;;4989153;28;19930;-80
2021/12/28 03:50:06;;;;;;;;;;;10.60;99.90;;;;;;4988966;28;19929;-81
2021/12/28 03:52:33;;;;;;;;;;;10.60;99.90;;;;;;5007680;28;19929;-81
2021/12/28 03:55:01;;;;;;;;;;;10.50;99.90;;;;;;5007310;28;19940;-80
2021/12/28 03:57:31;;;;;;;;;;;10.60;99.90;;;;;;5002170;28;20407;-85
2021/12/28 03:59:59;;;;;;;;;;;10.60;99.90;;;;;;4987568;28;19936;-83
2021/12/28 04:02:27;;;;;;;;;;;10.60;99.90;;;;;;4989072;28;20422;-83
2021/12/28 04:04:55;;;;;;;;;;;10.60;99.90;;;;;;5005725;28;19926;-81
2021/12/28 04:07:24;;;;;;;;;;;10.70;99.90;;;;;;4970946;28;20420;-81
2021/12/28 04:12:21;;;;;;;;;;;10.70;99.90;;;;;;4989822;28;19934;-80
2021/12/28 04:14:48;;;;;;;;;;;10.80;99.90;;;;;;5006095;28;19949;-80
2021/12/28 04:17:16;;;;;;;;;;;10.80;99.90;;;;;;4989489;28;19929;-80
2021/12/28 04:19:44;;;;;;;;;;;10.80;99.90;;;;;;4985551;28;19930;-79
2021/12/28 04:22:12;;;;;;;;;;;10.80;99.90;;;;;;4987941;28;19930;-82
2021/12/28 04:24:40;;;;;;;;;;;10.80;99.90;;;;;;4986786;28;19934;-79
2021/12/28 04:27:22;;;;;;;;;;;10.80;99.90;;;;;;4985299;28;19930;-80
2021/12/28 04:29:49;;;;;;;;;;;10.80;99.90;;;;;;4981501;28;19929;-79
2021/12/28 04:32:17;;;;;;;;;;;10.80;99.90;;;;;;5005496;28;19933;-81
2021/12/28 04:34:52;;;;;;;;;;;10.80;99.90;;;;;;5004260;28;19930;-79
2021/12/28 04:37:20;;;;;;;;;;;10.80;99.90;;;;;;4987451;28;20291;-79
2021/12/28 04:39:48;;;;;;;;;;;10.80;99.90;;;;;;5004475;28;19936;-83
2021/12/28 04:42:18;;;;;;;;;;;10.80;99.90;;;;;;4971802;28;19941;-79
2021/12/28 04:44:49;;;;;;;;;;;10.80;99.90;;;;;;5004470;28;19926;-81
2021/12/28 04:47:17;;;;;;;;;;;10.80;99.90;;;;;;5004200;28;19933;-83
2021/12/28 04:49:46;;;;;;;;;;;10.80;99.90;;;;;;4992944;28;19926;-81
2021/12/28 04:52:14;;;;;;;;;;;10.70;99.90;;;;;;4983532;28;19938;-79
2021/12/28 04:54:42;;;;;;;;;;;10.70;99.90;;;;;;4984470;28;19938;-81
2021/12/28 04:57:10;;;;;;;;;;;10.70;99.90;;;;;;5001176;28;19930;-83
2021/12/28 04:59:37;;;;;;;;;;;10.60;99.90;;;;;;4970992;28;20714;-80
2021/12/28 05:02:05;;;;;;;;;;;10.60;99.90;;;;;;5004618;28;19926;-81
2021/12/28 05:04:33;;;;;;;;;;;10.70;99.90;;;;;;5005424;28;19945;-81
2021/12/28 05:07:00;;;;;;;;;;;10.60;99.90;;;;;;5004678;28;19926;-80
2021/12/28 05:09:28;;;;;;;;;;;10.60;99.90;;;;;;4988425;28;19926;-81
2021/12/28 05:11:56;;;;;;;;;;;10.60;99.90;;;;;;5005521;28;20051;-80
2021/12/28 05:14:23;;;;;;;;;;;10.60;99.90;;;;;;4988455;28;19921;-80
2021/12/28 05:16:51;;;;;;;;;;;10.60;99.90;;;;;;4991165;28;19925;-80
2021/12/28 05:19:19;;;;;;;;;;;10.60;99.90;;;;;;4987747;28;19933;-82
2021/12/28 05:21:48;;;;;;;;;;;10.70;99.90;;;;;;5004390;28;19926;-81
2021/12/28 05:24:16;;;;;;;;;;;10.70;99.90;;;;;;5004993;28;19926;-82
2021/12/28 05:26:44;;;;;;;;;;;10.70;99.90;;;;;;5007594;28;19932;-81
2021/12/28 05:29:12;;;;;;;;;;;10.70;99.90;;;;;;5004251;28;20299;-79
2021/12/28 05:31:41;;;;;;;;;;;10.70;99.90;;;;;;4998375;28;19926;-81
2021/12/28 05:34:12;;;;;;;;;;;10.70;99.90;;;;;;4965932;28;19953;-82
2021/12/28 05:37:05;;;;;;;;;;;10.70;99.90;;;;;;4983563;28;19930;-79
2021/12/28 05:39:35;;;;;;;;;;;10.70;99.90;;;;;;4980982;28;19930;-79
2021/12/28 05:42:04;;;;;;;;;;;10.70;99.90;;;;;;4981913;28;19953;-81
2021/12/28 05:44:32;;;;;;;;;;;10.70;99.90;;;;;;4983238;28;19935;-80
2021/12/28 05:47:00;;;;;;;;;;;10.70;99.90;;;;;;4967282;28;19941;-79
2021/12/28 05:49:27;;;;;;;;;;;10.70;99.90;;;;;;4993607;28;19936;-79
2021/12/28 05:51:55;;;;;;;;;;;10.70;99.90;;;;;;4974188;28;19952;-80
2021/12/28 05:54:23;;;;;;;;;;;10.70;99.90;;;;;;4963622;29;19926;-80
2021/12/28 05:56:50;;;;;;;;;;;10.70;99.90;;;;;;4976148;28;20483;-81
2021/12/28 05:59:18;;;;;;;;;;;10.70;99.90;;;;;;4981727;28;20484;-81
2021/12/28 06:01:46;;;;;;;;;;;10.70;99.90;;;;;;4996901;28;19937;-80
2021/12/28 06:04:14;;;;;;;;;;;10.70;99.90;;;;;;4981456;28;19926;-81
2021/12/28 06:06:42;;;;;;;;;;;10.70;99.90;;;;;;4968281;28;20377;-79
2021/12/28 06:09:10;;;;;;;;;;;10.70;99.90;;;;;;4977028;28;19930;-80
2021/12/28 06:11:38;;;;;;;;;;;10.70;99.90;;;;;;4979229;28;19926;-81
2021/12/28 06:14:05;;;;;;;;;;;10.70;99.90;;;;;;4985535;28;19926;-79
2021/12/28 06:16:34;;;;;;;;;;;10.70;99.90;;;;;;4986464;28;19930;-80
2021/12/28 06:19:03;;;;;;;;;;;10.70;99.90;;;;;;4989026;28;19934;-82
2021/12/28 06:21:31;;;;;;;;;;;10.60;99.90;;;;;;4989556;28;19934;-82
2021/12/28 06:24:00;;;;;;;;;;;10.60;99.90;;;;;;4988706;28;20180;-80
2021/12/28 06:26:28;;;;;;;;;;;10.60;99.90;;;;;;4986518;28;19926;-82
2021/12/28 06:28:56;;;;;;;;;;;10.60;99.90;;;;;;5001472;28;19937;-83
2021/12/28 06:31:28;;;;;;;;;;;10.60;99.90;;;;;;4995691;28;20332;-82
2021/12/28 06:33:57;;;;;;;;;;;10.60;99.90;;;;;;5005372;28;19937;-81
2021/12/28 06:36:26;;;;;;;;;;;10.50;99.90;;;;;;4988206;28;19926;-81
2021/12/28 06:38:53;;;;;;;;;;;10.50;99.90;;;;;;4987207;28;19930;-81
2021/12/28 06:41:21;;;;;;;;;;;10.60;99.90;;;;;;5005127;28;19937;-82
2021/12/28 06:43:49;;;;;;;;;;;10.60;99.90;;;;;;4987975;28;19933;-80
2021/12/28 06:46:17;;;;;;;;;;;10.60;99.90;;;;;;5005368;28;19936;-82
2021/12/28 06:48:46;;;;;;;;;;;10.60;99.90;;;;;;4972043;28;19949;-80
2021/12/28 06:51:14;;;;;;;;;;;10.60;99.90;;;;;;4971975;28;19930;-81
2021/12/28 06:53:42;;;;;;;;;;;10.60;99.90;;;;;;4988245;28;19930;-82
2021/12/28 06:56:10;;;;;;;;;;;10.60;99.90;;;;;;4987866;28;19929;-79
2021/12/28 06:58:38;;;;;;;;;;;10.90;99.90;;;;;;5004365;28;19926;-81
2021/12/28 07:01:06;;;;;;;;;;;10.60;99.90;;;;;;4971408;28;19940;-81
2021/12/28 07:03:34;;;;;;;;;;;10.60;99.90;;;;;;5004698;28;19925;-80
2021/12/28 07:06:02;;;;;;;;;;;10.60;99.90;;;;;;4970665;28;20509;-80
2021/12/28 07:08:30;;;;;;;;;;;10.60;99.90;;;;;;4986433;28;19937;-80
2021/12/28 07:10:59;;;;;;;;;;;10.80;99.90;;;;;;4988147;28;19932;-80
2021/12/28 07:13:30;;;;;;;;;;;10.60;99.90;;;;;;4984764;28;20103;-81
2021/12/28 07:15:57;;;;;;;;;;;10.60;99.90;;;;;;4967642;28;19927;-81
2021/12/28 07:18:25;;;;;;;;;;;10.70;99.90;;;;;;4982637;28;19967;-80
2021/12/28 07:20:53;;;;;;;;;;;10.60;99.90;;;;;;4987852;28;20630;-79
2021/12/28 07:23:21;;;;;;;;;;;10.70;99.90;;;;;;5002748;28;19926;-81
2021/12/28 07:25:53;;;;;;;;;;;10.70;99.90;;;;;;4969274;28;19960;-82
2021/12/28 07:28:21;;;;;;;;;;;10.70;99.90;;;;;;5001577;28;19937;-81
2021/12/28 07:30:49;;;;;;;;;;;10.70;99.90;;;;;;4997804;28;19945;-81
2021/12/28 07:33:17;;;;;;;;;;;10.70;99.90;;;;;;4963107;28;19926;-81
2021/12/28 07:35:46;;;;;;;;;;;10.80;99.90;;;;;;4975718;28;20685;-80
2021/12/28 07:38:14;;;;;;;;;;;10.80;99.90;;;;;;4983045;28;19926;-82
2021/12/28 07:40:41;;;;;;;;;;;10.90;99.90;;;;;;4982926;28;19930;-80
2021/12/28 07:43:09;;;;;;;;;;;9.90;99.90;;;;;;4983598;28;19926;-84
2021/12/28 07:45:39;;;;;;;;;;;10.90;99.90;;;;;;4980625;28;19926;-80
2021/12/28 07:48:07;;;;;;;;;;;11.00;99.90;;;;;;4982178;28;19937;-80
2021/12/28 07:50:35;;;;;;;;;;;10.90;99.90;;;;;;4979934;28;19938;-81
2021/12/28 07:53:03;;;;;;;;;;;10.90;99.90;;;;;;4966032;29;19933;-81
2021/12/28 07:55:31;;;;;;;;;;;10.90;99.90;;;;;;4994294;28;19940;-80
2021/12/28 07:57:58;;;;;;;;;;;10.90;99.90;;;;;;4983551;28;19933;-80
2021/12/28 08:00:30;;;;;;;;;;;10.90;99.90;;;;;;4989414;28;19930;-82
2021/12/28 08:03:00;;;;;;;;;;;11.00;99.90;;;;;;4983055;28;19926;-81
2021/12/28 08:05:28;;;;;;;;;;;11.00;99.90;;;;;;4983423;28;19936;-80
2021/12/28 08:07:56;;;;;;;;;;;10.90;99.90;;;;;;4983257;28;19926;-81
2021/12/28 08:10:25;;;;;;;;;;;10.20;99.90;;;;;;4982881;28;19926;-81
2021/12/28 08:12:54;;;;;;;;;;;10.90;99.90;;;;;;4984414;28;19926;-83
2021/12/28 08:15:26;;;;;;;;;;;11.10;99.90;;;;;;4983963;28;19936;-80
2021/12/28 08:18:03;;;;;;;;;;;10.90;99.90;;;;;;4984841;28;20340;-82
2021/12/28 08:20:31;;;;;;;;;;;10.80;99.90;;;;;;4984970;28;19930;-81
2021/12/28 08:22:58;;;;;;;;;;;10.70;99.90;;;;;;4987298;28;19930;-81
2021/12/28 08:25:27;;;;;;;;;;;10.60;99.90;;;;;;4985171;28;19930;-80
2021/12/28 08:27:56;;;;;;;;;;;10.50;99.90;;;;;;4984379;28;20391;-80
2021/12/28 08:30:24;;;;;;;;;;;10.40;99.90;;;;;;4983634;28;19930;-81
2021/12/28 08:32:52;;;;;;;;;;;10.30;99.90;;;;;;5003223;28;19930;-81
2021/12/28 08:35:19;;;;;;;;;;;10.20;99.90;;;;;;5001192;28;19925;-81
2021/12/28 08:37:48;;;;;;;;;;;10.10;99.90;;;;;;5000684;28;20070;-82
2021/12/28 08:40:17;;;;;;;;;;;10.10;99.90;;;;;;4990761;28;19937;-81
2021/12/28 08:42:44;;;;;;;;;;;10.10;99.90;;;;;;4985394;28;20211;-81
2021/12/28 08:45:12;;;;;;;;;;;10.20;99.90;;;;;;4984873;28;19945;-81
2021/12/28 08:47:41;;;;;;;;;;;10.20;99.90;;;;;;4999718;28;19926;-81
2021/12/28 08:50:09;;;;;;;;;;;10.20;99.90;;;;;;5000244;28;19937;-80
2021/12/28 08:52:37;;;;;;;;;;;10.20;99.90;;;;;;4989253;28;19937;-82
2021/12/28 08:55:10;;;;;;;;;;;10.20;99.90;;;;;;4995474;28;19925;-79
2021/12/28 08:57:38;;;;;;;;;;;10.20;99.90;;;;;;4974611;28;19941;-80
2021/12/28 09:00:10;;;;;;;;;;;10.20;99.90;;;;;;4968823;28;19926;-80
2021/12/28 09:02:38;;;;;;;;;;;10.20;99.90;;;;;;4981496;28;19926;-81
2021/12/28 09:05:06;;;;;;;;;;;10.30;99.90;;;;;;4967410;28;19926;-80
2021/12/28 09:07:34;;;;;;;;;;;10.30;99.90;;;;;;4982364;28;19925;-82
2021/12/28 09:10:02;;;;;;;;;;;10.20;99.90;;;;;;4998579;28;19940;-81
2021/12/28 09:12:30;;;;;;;;;;;10.20;99.90;;;;;;4983170;28;19937;-82
2021/12/28 09:14:57;;;;;;;;;;;10.20;99.90;;;;;;5000577;28;19926;-83
2021/12/28 09:17:25;;;;;;;;;;;10.20;99.90;;;;;;4966607;28;19936;-81
2021/12/28 09:19:55;;;;;;;;;;;10.20;99.90;;;;;;4982030;28;19960;-81
2021/12/28 09:22:24;;;;;;;;;;;10.20;99.90;;;;;;4983710;28;19930;-83
2021/12/28 09:24:52;;;;;;;;;;;10.10;99.90;;;;;;4985482;28;20505;-82
2021/12/28 09:27:19;;;;;;;;;;;10.20;99.90;;;;;;4969653;28;19926;-81
2021/12/28 09:29:47;;;;;;;;;;;10.00;99.90;;;;;;4976815;28;19930;-83
2021/12/28 09:32:17;;;;;;;;;;;10.00;99.90;;;;;;5001796;28;19926;-82
2021/12/28 09:34:46;;;;;;;;;;;9.90;99.90;;;;;;4985068;28;19929;-82
2021/12/28 09:37:15;;;;;;;;;;;9.90;99.90;;;;;;5002495;28;20331;-83
2021/12/28 09:39:43;;;;;;;;;;;10.00;99.90;;;;;;4993147;28;19926;-81
2021/12/28 09:42:16;;;;;;;;;;;10.00;99.90;;;;;;4990769;28;19929;-83
2021/12/28 09:44:49;;;;;;;;;;;9.90;99.90;;;;;;4985415;28;19932;-82
2021/12/28 09:47:19;;;;;;;;;;;10.00;99.90;;;;;;5001266;28;19933;-81
2021/12/28 09:49:50;;;;;;;;;;;10.00;99.90;;;;;;4969351;28;19933;-80
2021/12/28 09:52:20;;;;;;;;;;;9.90;99.90;;;;;;5000349;28;19938;-83
2021/12/28 09:54:48;;;;;;;;;;;9.90;99.90;;;;;;4982453;28;20367;-81
2021/12/28 09:57:16;;;;;;;;;;;9.80;99.90;;;;;;4997514;28;19925;-84
2021/12/28 09:59:45;;;;;;;;;;;9.80;99.90;;;;;;4984881;28;19925;-81
2021/12/28 10:02:13;;;;;;;;;;;9.80;99.90;;;;;;4998607;28;19926;-82
2021/12/28 10:05:00;;;;;;;;;;;9.70;99.90;;;;;;4966102;28;19925;-82
2021/12/28 10:07:31;;;;;;;;;;;9.80;99.90;;;;;;4981536;28;19925;-82
2021/12/28 10:10:00;;;;;;;;;;;9.80;99.90;;;;;;5000134;28;19930;-82
2021/12/28 10:12:33;;;;;;;;;;;10.00;99.90;;;;;;4983685;28;20406;-80
2021/12/28 10:15:03;;;;;;;;;;;9.90;99.90;;;;;;4999986;28;19945;-80
2021/12/28 10:17:34;;;;;;;;;;;10.20;99.90;;;;;;4984331;28;19937;-81
2021/12/28 10:20:11;;;;;;;;;;;10.00;99.90;;;;;;4999526;28;19930;-82
2021/12/28 10:22:43;;;;;;;;;;;10.10;99.90;;;;;;4987398;28;19930;-81
2021/12/28 10:25:14;;;;;;;;;;;10.20;99.90;;;;;;5001410;28;19926;-81
2021/12/28 10:27:46;;;;;;;;;;;10.20;99.90;;;;;;4981766;28;20006;-81
2021/12/28 10:30:21;;;;;;;;;;;10.10;99.90;;;;;;4985132;28;19955;-80
2021/12/28 10:32:55;;;;;;;;;;;10.10;99.90;;;;;;4984308;28;19940;-81
2021/12/28 10:35:27;;;;;;;;;;;10.10;99.90;;;;;;4982755;28;20331;-81
2021/12/28 10:37:58;;;;;;;;;;;10.10;99.90;;;;;;4970466;28;19940;-80
2021/12/28 10:40:44;;;;;;;;;;;10.00;99.90;;;;;;4963901;28;19926;-83
2021/12/28 10:43:13;;;;;;;;;;;9.90;99.90;;;;;;4986812;28;19930;-83
2021/12/28 10:45:46;;;;;;;;;;;9.80;99.90;;;;;;4974457;28;19936;-80
2021/12/28 10:48:17;;;;;;;;;;;9.80;99.90;;;;;;4998450;28;19926;-82
2021/12/28 10:50:54;;;;;;;;;;;9.90;99.90;;;;;;4996006;28;19926;-83
2021/12/28 10:53:33;;;;;;;;;;;9.70;99.90;;;;;;4995745;28;19940;-82
2021/12/28 10:56:04;;;;;;;;;;;9.70;99.90;;;;;;4982403;28;19936;-82
2021/12/28 10:58:41;;;;;;;;;;;9.60;99.90;;;;;;4980865;28;19934;-81
2021/12/28 11:01:20;;;;;;;;;;;9.60;99.90;;;;;;4983897;28;19933;-82
2021/12/28 11:03:50;;;;;;;;;;;9.50;99.90;;;;;;4998827;28;19933;-83
2021/12/28 11:06:20;;;;;;;;;;;9.40;99.90;;;;;;5000563;28;20339;-83
2021/12/28 11:08:52;;;;;;;;;;;9.70;99.90;;;;;;4980916;28;19934;-82
2021/12/28 11:11:22;;;;;;;;;;;9.20;99.90;;;;;;4984110;28;19936;-82
2021/12/28 11:13:52;;;;;;;;;;;9.40;99.90;;;;;;4982076;28;20717;-81
2021/12/28 11:16:23;;;;;;;;;;;9.30;99.90;;;;;;4982686;28;19930;-81
2021/12/28 11:18:52;;;;;;;;;;;9.30;99.90;;;;;;4982495;28;19930;-82
2021/12/28 11:21:25;;;;;;;;;;;9.30;99.90;;;;;;4983647;28;19944;-81
2021/12/28 11:23:54;;;;;;;;;;;9.20;99.90;;;;;;4999573;28;19934;-81
2021/12/28 11:26:34;;;;;;;;;;;9.20;99.90;;;;;;4983570;28;20195;-81
2021/12/28 11:29:04;;;;;;;;;;;9.20;99.90;;;;;;4998685;28;19930;-82
2021/12/28 11:31:36;;;;;;;;;;;9.20;99.90;;;;;;4980304;28;19941;-82
2021/12/28 11:34:13;;;;;;;;;;;9.00;99.90;;;;;;4979519;28;19926;-81
2021/12/28 11:36:45;;;;;;;;;;;9.30;99.90;;;;;;4979564;28;19927;-80
2021/12/28 11:39:16;;;;;;;;;;;9.40;99.90;;;;;;4980478;28;19930;-80
2021/12/28 11:41:46;;;;;;;;;;;9.30;99.90;;;;;;4996827;28;19934;-81
2021/12/28 11:44:15;;;;;;;;;;;9.50;99.90;;;;;;4979924;28;19946;-80
2021/12/28 11:46:43;;;;;;;;;;;9.50;99.90;;;;;;4994302;28;19934;-79
2021/12/28 11:49:14;;;;;;;;;;;9.70;99.90;;;;;;4980721;28;19926;-82
2021/12/28 11:51:45;;;;;;;;;;;9.60;99.90;;;;;;4979476;28;19976;-80
2021/12/28 11:54:14;;;;;;;;;;;9.70;99.90;;;;;;4981306;28;19945;-82
2021/12/28 11:56:49;;;;;;;;;;;9.70;99.90;;;;;;4979012;28;19937;-82
2021/12/28 11:59:28;;;;;;;;;;;9.80;99.90;;;;;;4993520;28;19927;-81
2021/12/28 12:02:01;;;;;;;;;;;10.20;99.90;;;;;;4978628;28;19960;-81
2021/12/28 12:04:29;;;;;;;;;;;9.80;99.90;;;;;;4976895;28;19926;-82
2021/12/28 12:07:05;;;;;;;;;;;9.90;99.90;;;;;;4960723;28;19954;-82
2021/12/28 12:09:52;;;;;;;;;;;9.90;99.90;;;;;;4977938;28;19926;-83
2021/12/28 12:12:25;;;;;;;;;;;10.00;99.90;;;;;;4979789;28;19932;-81
2021/12/28 12:14:58;;;;;;;;;;;10.10;99.90;;;;;;4981100;28;19941;-81
2021/12/28 12:17:30;;;;;;;;;;;10.10;99.90;;;;;;4981671;28;19940;-81
2021/12/28 12:23:31;;;;;;;;;;;10.20;99.90;;;;;;4995730;28;20420;-82
2021/12/28 12:26:04;;;;;;;;;;;10.30;99.90;;;;;;4996644;28;19922;-82
2021/12/28 12:28:57;;;;;;;;;;;10.40;99.90;;;;;;4981479;28;19934;-82
2021/12/28 12:31:41;;;;;;;;;;;10.50;99.90;;;;;;4996554;28;19930;-82
2021/12/28 12:34:31;;;;;;;;;;;10.40;99.90;;;;;;4983644;28;19940;-83
2021/12/28 12:36:59;;;;;;;;;;;10.50;99.90;;;;;;4986483;28;19933;-83
2021/12/28 12:39:36;;;;;;;;;;;10.50;99.90;;;;;;4980302;28;19926;-81
2021/12/28 12:42:09;;;;;;;;;;;10.50;99.90;;;;;;4964939;28;19930;-81
2021/12/28 12:45:03;;;;;;;;;;;10.60;99.90;;;;;;4996663;28;19926;-81
2021/12/28 12:47:36;;;;;;;;;;;11.60;99.90;;;;;;4980495;28;20010;-82
2021/12/28 12:50:09;;;;;;;;;;;10.60;99.90;;;;;;4994610;28;19937;-81
2021/12/28 12:53:05;;;;;;;;;;;10.50;99.90;;;;;;4979026;28;19941;-81
2021/12/28 12:55:58;;;;;;;;;;;10.80;99.90;;;;;;4995456;28;19937;-81
2021/12/28 12:58:37;;;;;;;;;;;10.70;99.90;;;;;;4965882;28;19934;-82
2021/12/28 13:01:06;;;;;;;;;;;10.80;99.90;;;;;;4979757;28;19927;-82
2021/12/28 13:03:34;;;;;;;;;;;10.90;99.90;;;;;;4976102;28;20403;-82
2021/12/28 13:06:02;;;;;;;;;;;10.90;99.90;;;;;;4965220;28;20378;-81
2021/12/28 13:08:29;;;;;;;;;;;11.00;99.90;;;;;;4993404;28;19926;-81
2021/12/28 13:10:58;;;;;;;;;;;11.10;99.90;;;;;;4994776;28;19926;-82
2021/12/28 13:13:26;;;;;;;;;;;11.20;99.90;;;;;;4993237;28;19934;-82
2021/12/28 13:15:54;;;;;;;;;;;11.00;99.90;;;;;;4981209;28;19930;-82
2021/12/28 13:18:38;;;;;;;;;;;11.30;99.90;;;;;;4986357;23;19931;-90
2021/12/28 13:21:06;;;;;;;;;;;11.30;99.90;;;;;;4975742;28;20080;-90
2021/12/28 13:23:34;;;;;;;;;;;11.70;99.90;;;;;;4959135;28;20364;-90
2021/12/28 13:26:02;;;;;;;;;;;11.50;99.90;;;;;;4941634;28;19930;-91
2021/12/28 13:28:33;;;;;;;;;;;11.40;99.90;;;;;;4951277;28;19934;-91
2021/12/28 13:31:01;;;;;;;;;;;11.70;99.90;;;;;;4947899;28;19930;-91
2021/12/28 13:33:43;;;;;;;;;;;11.30;99.90;;;;;;4950619;29;20310;-91
2021/12/28 13:36:18;;;;;;;;;;;11.80;99.90;;;;;;4939185;28;19934;-89
2021/12/28 13:38:48;;;;;;;;;;;11.60;99.90;;;;;;4932027;28;20062;-89
2021/12/28 13:41:16;;;;;;;;;;;11.60;99.90;;;;;;4930582;28;19926;-90
2021/12/28 13:43:44;;;;;;;;;;;11.60;99.90;;;;;;4931848;28;19926;-91
2021/12/28 13:46:12;;;;;;;;;;;10.90;99.90;;;;;;4965623;28;19930;-89
2021/12/28 13:48:42;;;;;;;;;;;11.60;99.90;;;;;;4944833;28;19941;-91
2021/12/28 13:51:12;;;;;;;;;;;11.70;99.90;;;;;;4928095;28;19926;-91
2021/12/28 13:53:49;;;;;;;;;;;11.60;99.90;;;;;;4950390;28;19930;-90
2021/12/28 13:56:17;;;;;;;;;;;11.70;99.90;;;;;;4947180;28;20548;-90
2021/12/28 13:58:48;;;;;;;;;;;11.60;99.90;;;;;;4947325;28;19930;-91
2021/12/28 14:01:26;;;;;;;;;;;11.60;99.90;;;;;;4947526;28;20290;-88
2021/12/28 14:04:16;;;;;;;;;;;11.70;99.90;;;;;;4949531;28;19926;-91
2021/12/28 14:06:45;;;;;;;;;;;11.70;99.90;;;;;;4918398;28;19927;-92
2021/12/28 14:09:14;;;;;;;;;;;11.70;99.90;;;;;;4933737;28;19945;-89
2021/12/28 14:11:44;;;;;;;;;;;11.80;99.90;;;;;;4915117;28;20325;-88
2021/12/28 14:14:20;;;;;;;;;;;11.70;99.90;;;;;;4948850;28;19933;-89
2021/12/28 14:16:57;;;;;;;;;;;11.70;99.90;;;;;;4961168;28;20298;-90
2021/12/28 14:19:27;;;;;;;;;;;11.70;99.90;;;;;;4943760;28;19927;-91
2021/12/28 14:21:59;;;;;;;;;;;11.70;99.90;;;;;;4948051;28;19931;-91
2021/12/28 14:24:53;;;;;;;;;;;11.70;99.90;;;;;;4951098;28;20255;-90
2021/12/28 14:35:13;;;;;;;;;;;11.50;99.90;;;;;;4970330;28;19915;-92
2021/12/28 14:37:48;;;;;;;;;;;11.80;99.90;;;;;;4944729;28;19926;-92
2021/12/28 14:41:25;;;;;;;;;;;11.70;99.90;;;;;;4972783;28;19937;-91
2021/12/28 14:44:23;;;;;;;;;;;11.80;99.90;;;;;;4978975;28;19930;-90
2021/12/28 14:47:26;;;;;;;;;;;11.90;99.90;;;;;;4978253;28;20385;-91
2021/12/28 14:50:24;;;;;;;;;;;12.50;99.90;;;;;;4981471;28;19934;-90
2021/12/28 14:53:20;;;;;;;;;;;11.60;99.90;;;;;;4947912;28;19931;-91
2021/12/28 14:55:53;;;;;;;;;;;11.50;99.90;;;;;;4939863;29;19931;-92